Fort Worth Alliance Airport Fort Worth US
ICAO: KAFW
IATA: AFW
Category: Large
Scheduled Services: No

Elevation: 722 ft
TransAlt. 18000 ft.

Airport Communications:
RGNL APP/DEP:118.1
ASOS:126.925
ATIS:126.925
CLNC DEL:128.725
GND:132.65
ALLIANCE TWR:120.825

KAFW Zoom In..

If Map Doesn't Load, Click Here

Runways:

(A) RW 16L length 9600 ft width 150 ft
ILS 110.15 / hdg 163

(B) RW 16R length 8220 ft width 150 ft
---- / hdg 163

(C) RW 34L length 8220 ft width 150 ft
---- / hdg 343

(D) RW 34R length 9600 ft width 150 ft
ILS 110.15 / hdg 343

Location; KAFW
Day. 21 / Time. 15.15 Zulu
* Altimeter: 29.96
* Temperature: 26° c. 78.8°f.
* Wind from: 160° Speed 11 kn.
Dewpoint: 24° c.
Visibility: 10 Statute Miles.
Clouds: Scattered 1600 ft.
Clouds: Broken 5500 ft.
Clouds: Overcast 9000 ft.

KAFW 211515Z 16011KT 10SM SCT016 BKN055 OVC090 26/24 A2996 RMK AO2 RAE14 P0000 T02610239 $


Wind From 160°
Speed 11 kn.

 
 
jpsmedia.com for Web Design worldairports.se 2018   terms of use